sensor_id;sensor_type;location;lat;lon;timestamp;P1;durP1;ratioP1;P2;durP2;ratioP2
11893;SDS011;6006;49.696;8.662;2023-07-09T00:00:37;5.25;;;3.28;;
11893;SDS011;6006;49.696;8.662;2023-07-09T00:03:05;7.65;;;3.40;;
11893;SDS011;6006;49.696;8.662;2023-07-09T00:05:32;7.53;;;3.80;;
11893;SDS011;6006;49.696;8.662;2023-07-09T00:07:59;4.88;;;3.22;;
11893;SDS011;6006;49.696;8.662;2023-07-09T00:10:26;3.95;;;3.17;;
11893;SDS011;6006;49.696;8.662;2023-07-09T00:12:53;5.03;;;3.35;;
11893;SDS011;6006;49.696;8.662;2023-07-09T00:15:21;4.07;;;3.42;;
11893;SDS011;6006;49.696;8.662;2023-07-09T00:17:49;5.53;;;3.40;;
11893;SDS011;6006;49.696;8.662;2023-07-09T00:20:17;5.70;;;3.40;;
11893;SDS011;6006;49.696;8.662;2023-07-09T00:22:44;6.00;;;3.08;;
11893;SDS011;6006;49.696;8.662;2023-07-09T00:25:13;4.63;;;3.20;;
11893;SDS011;6006;49.696;8.662;2023-07-09T00:27:41;3.50;;;2.97;;
11893;SDS011;6006;49.696;8.662;2023-07-09T00:30:13;4.22;;;3.30;;
11893;SDS011;6006;49.696;8.662;2023-07-09T00:32:44;5.32;;;3.67;;
11893;SDS011;6006;49.696;8.662;2023-07-09T00:35:11;7.03;;;4.28;;
11893;SDS011;6006;49.696;8.662;2023-07-09T00:37:40;4.78;;;3.30;;
11893;SDS011;6006;49.696;8.662;2023-07-09T00:40:10;7.38;;;3.50;;
11893;SDS011;6006;49.696;8.662;2023-07-09T00:42:42;6.95;;;3.53;;
11893;SDS011;6006;49.696;8.662;2023-07-09T00:45:16;4.18;;;3.72;;
11893;SDS011;6006;49.696;8.662;2023-07-09T00:47:48;3.83;;;3.35;;
11893;SDS011;6006;49.696;8.662;2023-07-09T00:50:22;3.92;;;3.22;;
11893;SDS011;6006;49.696;8.662;2023-07-09T00:52:57;3.67;;;2.97;;
11893;SDS011;6006;49.696;8.662;2023-07-09T00:55:31;6.03;;;3.25;;
11893;SDS011;6006;49.696;8.662;2023-07-09T00:58:03;4.55;;;3.40;;
11893;SDS011;6006;49.696;8.662;2023-07-09T01:00:32;3.80;;;3.40;;
11893;SDS011;6006;49.696;8.662;2023-07-09T01:03:13;3.58;;;3.28;;
11893;SDS011;6006;49.696;8.662;2023-07-09T01:05:46;3.40;;;3.10;;
11893;SDS011;6006;49.696;8.662;2023-07-09T01:08:16;3.88;;;3.20;;
11893;SDS011;6006;49.696;8.662;2023-07-09T01:10:45;5.55;;;3.03;;
11893;SDS011;6006;49.696;8.662;2023-07-09T01:13:12;2.85;;;2.60;;
11893;SDS011;6006;49.696;8.662;2023-07-09T01:15:39;4.05;;;3.25;;
11893;SDS011;6006;49.696;8.662;2023-07-09T01:18:07;4.03;;;3.35;;
11893;SDS011;6006;49.696;8.662;2023-07-09T01:20:37;3.58;;;2.63;;
11893;SDS011;6006;49.696;8.662;2023-07-09T01:23:06;3.55;;;3.20;;
11893;SDS011;6006;49.696;8.662;2023-07-09T01:25:34;4.35;;;3.38;;
11893;SDS011;6006;49.696;8.662;2023-07-09T01:28:03;4.35;;;3.25;;
11893;SDS011;6006;49.696;8.662;2023-07-09T01:30:31;3.35;;;3.03;;
11893;SDS011;6006;49.696;8.662;2023-07-09T01:33:02;5.95;;;3.55;;
11893;SDS011;6006;49.696;8.662;2023-07-09T01:35:32;3.55;;;3.10;;
11893;SDS011;6006;49.696;8.662;2023-07-09T01:38:00;3.83;;;3.13;;
11893;SDS011;6006;49.696;8.662;2023-07-09T01:40:29;3.95;;;3.03;;
11893;SDS011;6006;49.696;8.662;2023-07-09T01:42:56;4.47;;;3.30;;
11893;SDS011;6006;49.696;8.662;2023-07-09T01:45:24;3.50;;;2.97;;
11893;SDS011;6006;49.696;8.662;2023-07-09T01:47:51;3.75;;;3.20;;
11893;SDS011;6006;49.696;8.662;2023-07-09T01:50:20;4.07;;;3.05;;
11893;SDS011;6006;49.696;8.662;2023-07-09T01:52:49;5.28;;;3.42;;
11893;SDS011;6006;49.696;8.662;2023-07-09T01:55:16;3.17;;;2.85;;
11893;SDS011;6006;49.696;8.662;2023-07-09T01:57:45;6.18;;;3.25;;
11893;SDS011;6006;49.696;8.662;2023-07-09T02:00:15;4.38;;;2.88;;
11893;SDS011;6006;49.696;8.662;2023-07-09T02:02:43;3.50;;;3.20;;
11893;SDS011;6006;49.696;8.662;2023-07-09T02:05:12;3.72;;;3.33;;
11893;SDS011;6006;49.696;8.662;2023-07-09T02:07:41;4.18;;;3.15;;
11893;SDS011;6006;49.696;8.662;2023-07-09T02:10:08;3.20;;;2.97;;
11893;SDS011;6006;49.696;8.662;2023-07-09T02:12:36;5.80;;;3.10;;
11893;SDS011;6006;49.696;8.662;2023-07-09T02:15:05;3.25;;;2.95;;
11893;SDS011;6006;49.696;8.662;2023-07-09T02:17:32;3.45;;;3.00;;
11893;SDS011;6006;49.696;8.662;2023-07-09T02:19:59;3.40;;;2.90;;
11893;SDS011;6006;49.696;8.662;2023-07-09T02:22:26;3.88;;;2.90;;
11893;SDS011;6006;49.696;8.662;2023-07-09T02:24:53;4.43;;;3.10;;
11893;SDS011;6006;49.696;8.662;2023-07-09T02:27:20;4.47;;;2.80;;
11893;SDS011;6006;49.696;8.662;2023-07-09T02:29:47;3.33;;;3.03;;
11893;SDS011;6006;49.696;8.662;2023-07-09T02:32:18;4.30;;;3.40;;
11893;SDS011;6006;49.696;8.662;2023-07-09T02:34:47;3.72;;;3.15;;
11893;SDS011;6006;49.696;8.662;2023-07-09T02:37:18;6.68;;;3.13;;
11893;SDS011;6006;49.696;8.662;2023-07-09T02:39:45;4.88;;;3.20;;
11893;SDS011;6006;49.696;8.662;2023-07-09T02:42:13;3.77;;;3.10;;
11893;SDS011;6006;49.696;8.662;2023-07-09T02:44:42;4.13;;;3.17;;
11893;SDS011;6006;49.696;8.662;2023-07-09T02:47:10;4.03;;;3.03;;
11893;SDS011;6006;49.696;8.662;2023-07-09T02:49:38;4.97;;;3.50;;
11893;SDS011;6006;49.696;8.662;2023-07-09T02:52:06;3.40;;;2.77;;
11893;SDS011;6006;49.696;8.662;2023-07-09T02:54:33;3.40;;;2.90;;
11893;SDS011;6006;49.696;8.662;2023-07-09T02:57:00;5.15;;;2.88;;
11893;SDS011;6006;49.696;8.662;2023-07-09T02:59:27;3.13;;;2.50;;
11893;SDS011;6006;49.696;8.662;2023-07-09T03:01:54;4.15;;;3.00;;
11893;SDS011;6006;49.696;8.662;2023-07-09T03:04:21;3.30;;;3.00;;
11893;SDS011;6006;49.696;8.662;2023-07-09T03:06:50;4.30;;;3.15;;
11893;SDS011;6006;49.696;8.662;2023-07-09T03:09:17;3.10;;;2.80;;
11893;SDS011;6006;49.696;8.662;2023-07-09T03:11:44;3.73;;;3.03;;
11893;SDS011;6006;49.696;8.662;2023-07-09T03:14:11;5.17;;;3.00;;
11893;SDS011;6006;49.696;8.662;2023-07-09T03:16:39;3.13;;;2.80;;
11893;SDS011;6006;49.696;8.662;2023-07-09T03:19:06;3.83;;;3.10;;
11893;SDS011;6006;49.696;8.662;2023-07-09T03:21:34;3.08;;;2.78;;
11893;SDS011;6006;49.696;8.662;2023-07-09T03:24:02;4.45;;;3.15;;
11893;SDS011;6006;49.696;8.662;2023-07-09T03:26:30;6.13;;;3.40;;
11893;SDS011;6006;49.696;8.662;2023-07-09T03:28:57;3.60;;;2.90;;
11893;SDS011;6006;49.696;8.662;2023-07-09T03:31:24;4.03;;;2.93;;
11893;SDS011;6006;49.696;8.662;2023-07-09T03:33:51;4.20;;;3.07;;
11893;SDS011;6006;49.696;8.662;2023-07-09T03:36:18;3.37;;;2.77;;
11893;SDS011;6006;49.696;8.662;2023-07-09T03:38:46;3.40;;;3.08;;
11893;SDS011;6006;49.696;8.662;2023-07-09T03:41:14;3.15;;;2.80;;
11893;SDS011;6006;49.696;8.662;2023-07-09T03:43:41;3.57;;;2.87;;
11893;SDS011;6006;49.696;8.662;2023-07-09T03:46:08;4.13;;;3.33;;
11893;SDS011;6006;49.696;8.662;2023-07-09T03:48:35;4.13;;;3.40;;
11893;SDS011;6006;49.696;8.662;2023-07-09T03:51:02;4.37;;;3.10;;
11893;SDS011;6006;49.696;8.662;2023-07-09T03:53:29;3.42;;;3.13;;
11893;SDS011;6006;49.696;8.662;2023-07-09T03:55:56;3.57;;;3.13;;
11893;SDS011;6006;49.696;8.662;2023-07-09T03:58:26;3.60;;;3.08;;
11893;SDS011;6006;49.696;8.662;2023-07-09T04:00:53;4.80;;;3.35;;
11893;SDS011;6006;49.696;8.662;2023-07-09T04:03:20;3.37;;;2.80;;
11893;SDS011;6006;49.696;8.662;2023-07-09T04:05:47;3.27;;;2.90;;
11893;SDS011;6006;49.696;8.662;2023-07-09T04:08:13;3.47;;;3.00;;
11893;SDS011;6006;49.696;8.662;2023-07-09T04:10:40;3.77;;;3.00;;
11893;SDS011;6006;49.696;8.662;2023-07-09T04:13:07;3.60;;;3.27;;
11893;SDS011;6006;49.696;8.662;2023-07-09T04:15:35;3.60;;;3.20;;
11893;SDS011;6006;49.696;8.662;2023-07-09T04:18:02;5.00;;;3.23;;
11893;SDS011;6006;49.696;8.662;2023-07-09T04:20:30;5.32;;;3.08;;
11893;SDS011;6006;49.696;8.662;2023-07-09T04:22:57;4.95;;;3.10;;
11893;SDS011;6006;49.696;8.662;2023-07-09T04:25:24;3.67;;;3.03;;
11893;SDS011;6006;49.696;8.662;2023-07-09T04:27:50;4.00;;;3.17;;
11893;SDS011;6006;49.696;8.662;2023-07-09T04:30:17;6.35;;;3.03;;
11893;SDS011;6006;49.696;8.662;2023-07-09T04:32:46;3.40;;;3.10;;
11893;SDS011;6006;49.696;8.662;2023-07-09T04:35:13;6.60;;;3.43;;
11893;SDS011;6006;49.696;8.662;2023-07-09T04:37:41;3.45;;;3.15;;
11893;SDS011;6006;49.696;8.662;2023-07-09T04:40:08;4.22;;;3.45;;
11893;SDS011;6006;49.696;8.662;2023-07-09T04:42:37;6.30;;;3.20;;
11893;SDS011;6006;49.696;8.662;2023-07-09T04:45:05;4.90;;;3.38;;
11893;SDS011;6006;49.696;8.662;2023-07-09T04:47:33;3.75;;;3.25;;
11893;SDS011;6006;49.696;8.662;2023-07-09T04:50:02;4.43;;;3.55;;
11893;SDS011;6006;49.696;8.662;2023-07-09T04:52:30;5.05;;;3.20;;
11893;SDS011;6006;49.696;8.662;2023-07-09T04:54:57;3.20;;;2.95;;
11893;SDS011;6006;49.696;8.662;2023-07-09T04:57:24;3.72;;;3.38;;
11893;SDS011;6006;49.696;8.662;2023-07-09T04:59:53;5.95;;;3.30;;
11893;SDS011;6006;49.696;8.662;2023-07-09T05:02:20;3.45;;;3.10;;
11893;SDS011;6006;49.696;8.662;2023-07-09T05:04:47;3.40;;;3.08;;
11893;SDS011;6006;49.696;8.662;2023-07-09T05:07:15;3.88;;;3.47;;
11893;SDS011;6006;49.696;8.662;2023-07-09T05:09:42;3.67;;;2.83;;
11893;SDS011;6006;49.696;8.662;2023-07-09T05:12:09;3.80;;;2.97;;
11893;SDS011;6006;49.696;8.662;2023-07-09T05:14:36;3.22;;;2.90;;
11893;SDS011;6006;49.696;8.662;2023-07-09T05:17:03;4.22;;;2.97;;
11893;SDS011;6006;49.696;8.662;2023-07-09T05:19:30;3.95;;;3.15;;
11893;SDS011;6006;49.696;8.662;2023-07-09T05:21:57;5.43;;;3.35;;
11893;SDS011;6006;49.696;8.662;2023-07-09T05:24:26;3.50;;;3.10;;
11893;SDS011;6006;49.696;8.662;2023-07-09T05:26:53;3.35;;;3.05;;
11893;SDS011;6006;49.696;8.662;2023-07-09T05:29:20;3.20;;;2.90;;
11893;SDS011;6006;49.696;8.662;2023-07-09T05:31:47;3.75;;;3.00;;
11893;SDS011;6006;49.696;8.662;2023-07-09T05:34:14;5.00;;;3.28;;
11893;SDS011;6006;49.696;8.662;2023-07-09T05:36:41;5.80;;;3.70;;
11893;SDS011;6006;49.696;8.662;2023-07-09T05:39:08;3.50;;;3.20;;
11893;SDS011;6006;49.696;8.662;2023-07-09T05:41:36;3.63;;;3.20;;
11893;SDS011;6006;49.696;8.662;2023-07-09T05:44:03;5.53;;;3.28;;
11893;SDS011;6006;49.696;8.662;2023-07-09T05:46:33;5.90;;;3.30;;
11893;SDS011;6006;49.696;8.662;2023-07-09T05:49:01;4.70;;;3.10;;
11893;SDS011;6006;49.696;8.662;2023-07-09T05:51:28;4.18;;;3.05;;
11893;SDS011;6006;49.696;8.662;2023-07-09T05:53:55;3.17;;;2.60;;
11893;SDS011;6006;49.696;8.662;2023-07-09T05:56:22;4.00;;;3.05;;
11893;SDS011;6006;49.696;8.662;2023-07-09T05:58:51;3.05;;;2.70;;
11893;SDS011;6006;49.696;8.662;2023-07-09T06:01:18;3.83;;;2.80;;
11893;SDS011;6006;49.696;8.662;2023-07-09T06:03:45;4.63;;;2.88;;
11893;SDS011;6006;49.696;8.662;2023-07-09T06:06:12;3.42;;;2.90;;
11893;SDS011;6006;49.696;8.662;2023-07-09T06:08:39;5.25;;;3.22;;
11893;SDS011;6006;49.696;8.662;2023-07-09T06:11:06;3.20;;;2.85;;
11893;SDS011;6006;49.696;8.662;2023-07-09T06:13:33;7.45;;;3.30;;
11893;SDS011;6006;49.696;8.662;2023-07-09T06:16:02;3.55;;;2.78;;
11893;SDS011;6006;49.696;8.662;2023-07-09T06:18:29;3.92;;;2.70;;
11893;SDS011;6006;49.696;8.662;2023-07-09T06:20:57;5.03;;;3.40;;
11893;SDS011;6006;49.696;8.662;2023-07-09T06:23:25;5.55;;;3.20;;
11893;SDS011;6006;49.696;8.662;2023-07-09T06:25:52;3.85;;;2.83;;
11893;SDS011;6006;49.696;8.662;2023-07-09T06:28:21;5.13;;;2.80;;
11893;SDS011;6006;49.696;8.662;2023-07-09T06:30:49;4.47;;;2.65;;
11893;SDS011;6006;49.696;8.662;2023-07-09T06:33:18;3.22;;;2.92;;
11893;SDS011;6006;49.696;8.662;2023-07-09T06:35:46;5.13;;;2.97;;
11893;SDS011;6006;49.696;8.662;2023-07-09T06:38:13;4.15;;;3.08;;
11893;SDS011;6006;49.696;8.662;2023-07-09T06:40:41;3.47;;;2.80;;
11893;SDS011;6006;49.696;8.662;2023-07-09T06:43:07;3.40;;;2.67;;
11893;SDS011;6006;49.696;8.662;2023-07-09T06:45:34;4.97;;;3.05;;
11893;SDS011;6006;49.696;8.662;2023-07-09T06:48:01;3.45;;;3.15;;
11893;SDS011;6006;49.696;8.662;2023-07-09T06:50:31;4.05;;;3.03;;
11893;SDS011;6006;49.696;8.662;2023-07-09T06:52:59;3.80;;;3.22;;
11893;SDS011;6006;49.696;8.662;2023-07-09T06:55:26;5.22;;;3.50;;
11893;SDS011;6006;49.696;8.662;2023-07-09T06:57:53;6.35;;;3.47;;
11893;SDS011;6006;49.696;8.662;2023-07-09T07:00:21;3.40;;;3.10;;
11893;SDS011;6006;49.696;8.662;2023-07-09T07:02:48;3.78;;;3.40;;
11893;SDS011;6006;49.696;8.662;2023-07-09T07:05:15;3.42;;;3.13;;
11893;SDS011;6006;49.696;8.662;2023-07-09T07:07:44;3.28;;;3.00;;
11893;SDS011;6006;49.696;8.662;2023-07-09T07:10:11;3.33;;;2.85;;
11893;SDS011;6006;49.696;8.662;2023-07-09T07:12:41;3.63;;;3.33;;
11893;SDS011;6006;49.696;8.662;2023-07-09T07:15:10;4.88;;;3.33;;
11893;SDS011;6006;49.696;8.662;2023-07-09T07:17:38;5.20;;;3.08;;
11893;SDS011;6006;49.696;8.662;2023-07-09T07:20:05;4.05;;;2.90;;
11893;SDS011;6006;49.696;8.662;2023-07-09T07:22:33;3.83;;;3.53;;
11893;SDS011;6006;49.696;8.662;2023-07-09T07:25:02;4.05;;;3.65;;
11893;SDS011;6006;49.696;8.662;2023-07-09T07:27:29;4.60;;;3.13;;
11893;SDS011;6006;49.696;8.662;2023-07-09T07:29:56;4.93;;;3.63;;
11893;SDS011;6006;49.696;8.662;2023-07-09T07:32:23;4.85;;;3.20;;
11893;SDS011;6006;49.696;8.662;2023-07-09T07:34:50;4.30;;;3.65;;
11893;SDS011;6006;49.696;8.662;2023-07-09T07:37:18;4.57;;;3.17;;
11893;SDS011;6006;49.696;8.662;2023-07-09T07:39:45;5.68;;;3.67;;
11893;SDS011;6006;49.696;8.662;2023-07-09T07:42:14;5.78;;;3.65;;
11893;SDS011;6006;49.696;8.662;2023-07-09T07:44:41;4.95;;;3.20;;
11893;SDS011;6006;49.696;8.662;2023-07-09T07:47:08;3.90;;;3.22;;
11893;SDS011;6006;49.696;8.662;2023-07-09T07:49:37;5.95;;;3.60;;
11893;SDS011;6006;49.696;8.662;2023-07-09T07:52:04;3.50;;;3.20;;
11893;SDS011;6006;49.696;8.662;2023-07-09T07:54:32;3.33;;;3.03;;
11893;SDS011;6006;49.696;8.662;2023-07-09T07:56:59;5.25;;;3.42;;
11893;SDS011;6006;49.696;8.662;2023-07-09T07:59:27;5.60;;;3.30;;
11893;SDS011;6006;49.696;8.662;2023-07-09T08:01:54;3.33;;;3.03;;
11893;SDS011;6006;49.696;8.662;2023-07-09T08:04:21;5.13;;;3.40;;
11893;SDS011;6006;49.696;8.662;2023-07-09T08:06:48;4.15;;;3.53;;
11893;SDS011;6006;49.696;8.662;2023-07-09T08:09:15;4.45;;;3.67;;
11893;SDS011;6006;49.696;8.662;2023-07-09T08:11:42;4.50;;;3.55;;
11893;SDS011;6006;49.696;8.662;2023-07-09T08:14:09;3.78;;;3.30;;
11893;SDS011;6006;49.696;8.662;2023-07-09T08:16:38;5.18;;;3.47;;
11893;SDS011;6006;49.696;8.662;2023-07-09T08:19:05;3.97;;;3.40;;
11893;SDS011;6006;49.696;8.662;2023-07-09T08:21:31;5.35;;;3.47;;
11893;SDS011;6006;49.696;8.662;2023-07-09T08:23:58;4.97;;;3.63;;
11893;SDS011;6006;49.696;8.662;2023-07-09T08:26:25;5.28;;;3.70;;
11893;SDS011;6006;49.696;8.662;2023-07-09T08:28:53;5.32;;;3.17;;
11893;SDS011;6006;49.696;8.662;2023-07-09T08:31:20;4.20;;;3.45;;
11893;SDS011;6006;49.696;8.662;2023-07-09T08:33:48;4.85;;;3.53;;
11893;SDS011;6006;49.696;8.662;2023-07-09T08:36:15;5.45;;;3.60;;
11893;SDS011;6006;49.696;8.662;2023-07-09T08:38:42;4.28;;;3.65;;
11893;SDS011;6006;49.696;8.662;2023-07-09T08:41:14;5.03;;;3.75;;
11893;SDS011;6006;49.696;8.662;2023-07-09T08:44:04;4.47;;;3.45;;
11893;SDS011;6006;49.696;8.662;2023-07-09T08:46:50;4.78;;;3.28;;
11893;SDS011;6006;49.696;8.662;2023-07-09T08:49:38;3.55;;;3.25;;
11893;SDS011;6006;49.696;8.662;2023-07-09T08:52:10;4.15;;;3.70;;
11893;SDS011;6006;49.696;8.662;2023-07-09T08:54:41;4.68;;;3.30;;
11893;SDS011;6006;49.696;8.662;2023-07-09T08:57:14;3.63;;;3.33;;
11893;SDS011;6006;49.696;8.662;2023-07-09T08:59:46;4.68;;;3.30;;
11893;SDS011;6006;49.696;8.662;2023-07-09T09:02:15;4.28;;;3.60;;
11893;SDS011;6006;49.696;8.662;2023-07-09T09:04:57;5.88;;;3.47;;
11893;SDS011;6006;49.696;8.662;2023-07-09T09:07:28;4.45;;;3.45;;
11893;SDS011;6006;49.696;8.662;2023-07-09T09:10:04;3.53;;;3.20;;
11893;SDS011;6006;49.696;8.662;2023-07-09T09:12:35;4.03;;;3.53;;
11893;SDS011;6006;49.696;8.662;2023-07-09T09:15:09;4.43;;;3.33;;
11893;SDS011;6006;49.696;8.662;2023-07-09T09:17:40;5.65;;;3.55;;
11893;SDS011;6006;49.696;8.662;2023-07-09T09:20:09;5.20;;;3.38;;
11893;SDS011;6006;49.696;8.662;2023-07-09T09:22:44;3.55;;;3.20;;
11893;SDS011;6006;49.696;8.662;2023-07-09T09:25:20;6.05;;;3.70;;
11893;SDS011;6006;49.696;8.662;2023-07-09T09:27:52;7.22;;;3.70;;
11893;SDS011;6006;49.696;8.662;2023-07-09T09:30:19;3.80;;;3.25;;
11893;SDS011;6006;49.696;8.662;2023-07-09T09:32:48;5.53;;;3.58;;
11893;SDS011;6006;49.696;8.662;2023-07-09T09:35:25;4.20;;;3.13;;
11893;SDS011;6006;49.696;8.662;2023-07-09T09:38:00;4.93;;;3.22;;
11893;SDS011;6006;49.696;8.662;2023-07-09T09:40:29;3.70;;;3.40;;
11893;SDS011;6006;49.696;8.662;2023-07-09T09:43:01;4.72;;;3.40;;
11893;SDS011;6006;49.696;8.662;2023-07-09T09:45:33;3.50;;;3.20;;
11893;SDS011;6006;49.696;8.662;2023-07-09T09:48:01;3.40;;;3.05;;
11893;SDS011;6006;49.696;8.662;2023-07-09T09:50:40;3.50;;;3.20;;
11893;SDS011;6006;49.696;8.662;2023-07-09T09:53:07;5.05;;;3.40;;
11893;SDS011;6006;49.696;8.662;2023-07-09T09:55:37;5.15;;;2.97;;
11893;SDS011;6006;49.696;8.662;2023-07-09T09:58:11;3.17;;;2.92;;
11893;SDS011;6006;49.696;8.662;2023-07-09T10:00:40;4.07;;;3.67;;
11893;SDS011;6006;49.696;8.662;2023-07-09T10:03:13;3.22;;;2.92;;
11893;SDS011;6006;49.696;8.662;2023-07-09T10:05:43;3.65;;;2.92;;
11893;SDS011;6006;49.696;8.662;2023-07-09T10:08:12;3.30;;;3.00;;
11893;SDS011;6006;49.696;8.662;2023-07-09T10:10:47;3.58;;;2.95;;
11893;SDS011;6006;49.696;8.662;2023-07-09T10:13:16;3.63;;;2.95;;
11893;SDS011;6006;49.696;8.662;2023-07-09T10:15:51;3.83;;;2.70;;
11893;SDS011;6006;49.696;8.662;2023-07-09T10:18:29;3.25;;;2.97;;
11893;SDS011;6006;49.696;8.662;2023-07-09T10:21:07;3.65;;;3.15;;
11893;SDS011;6006;49.696;8.662;2023-07-09T10:23:39;5.22;;;3.05;;
11893;SDS011;6006;49.696;8.662;2023-07-09T10:26:15;4.10;;;2.78;;
11893;SDS011;6006;49.696;8.662;2023-07-09T10:28:53;4.95;;;3.15;;
11893;SDS011;6006;49.696;8.662;2023-07-09T10:31:30;3.38;;;3.08;;
11893;SDS011;6006;49.696;8.662;2023-07-09T10:34:07;4.28;;;3.00;;
11893;SDS011;6006;49.696;8.662;2023-07-09T10:36:48;2.95;;;2.60;;
11893;SDS011;6006;49.696;8.662;2023-07-09T10:39:32;3.30;;;2.78;;
11893;SDS011;6006;49.696;8.662;2023-07-09T10:42:01;3.08;;;2.78;;
11893;SDS011;6006;49.696;8.662;2023-07-09T10:44:30;3.10;;;2.70;;
11893;SDS011;6006;49.696;8.662;2023-07-09T10:47:03;4.25;;;3.20;;
11893;SDS011;6006;49.696;8.662;2023-07-09T10:49:38;4.28;;;3.38;;
11893;SDS011;6006;49.696;8.662;2023-07-09T10:52:10;3.53;;;3.22;;
11893;SDS011;6006;49.696;8.662;2023-07-09T10:54:55;4.13;;;3.10;;
11893;SDS011;6006;49.696;8.662;2023-07-09T10:57:28;3.05;;;2.65;;
11893;SDS011;6006;49.696;8.662;2023-07-09T10:59:57;5.35;;;3.35;;
11893;SDS011;6006;49.696;8.662;2023-07-09T11:02:25;3.80;;;3.00;;
11893;SDS011;6006;49.696;8.662;2023-07-09T11:04:55;3.95;;;2.70;;
11893;SDS011;6006;49.696;8.662;2023-07-09T11:07:26;3.83;;;2.67;;
11893;SDS011;6006;49.696;8.662;2023-07-09T11:09:55;4.60;;;3.15;;
11893;SDS011;6006;49.696;8.662;2023-07-09T11:12:24;2.95;;;2.75;;
11893;SDS011;6006;49.696;8.662;2023-07-09T11:14:58;2.97;;;2.78;;
11893;SDS011;6006;49.696;8.662;2023-07-09T11:17:27;4.07;;;3.10;;
11893;SDS011;6006;49.696;8.662;2023-07-09T11:19:56;3.45;;;3.00;;
11893;SDS011;6006;49.696;8.662;2023-07-09T11:22:26;2.67;;;2.30;;
11893;SDS011;6006;49.696;8.662;2023-07-09T11:25:06;3.65;;;2.80;;
11893;SDS011;6006;49.696;8.662;2023-07-09T11:27:45;3.13;;;2.80;;
11893;SDS011;6006;49.696;8.662;2023-07-09T11:30:19;3.35;;;3.00;;
11893;SDS011;6006;49.696;8.662;2023-07-09T11:32:52;4.18;;;3.05;;
11893;SDS011;6006;49.696;8.662;2023-07-09T11:35:21;2.97;;;2.65;;
11893;SDS011;6006;49.696;8.662;2023-07-09T11:37:50;3.78;;;2.70;;
11893;SDS011;6006;49.696;8.662;2023-07-09T11:40:19;2.80;;;2.60;;
11893;SDS011;6006;49.696;8.662;2023-07-09T11:42:49;3.13;;;2.80;;
11893;SDS011;6006;49.696;8.662;2023-07-09T11:45:19;3.58;;;3.03;;
11893;SDS011;6006;49.696;8.662;2023-07-09T11:47:51;4.78;;;2.60;;
11893;SDS011;6006;49.696;8.662;2023-07-09T11:50:30;4.25;;;2.63;;
11893;SDS011;6006;49.696;8.662;2023-07-09T11:53:02;2.67;;;2.47;;
11893;SDS011;6006;49.696;8.662;2023-07-09T11:55:39;3.20;;;2.70;;
11893;SDS011;6006;49.696;8.662;2023-07-09T11:58:08;3.47;;;2.63;;
11893;SDS011;6006;49.696;8.662;2023-07-09T12:00:37;3.85;;;2.70;;
11893;SDS011;6006;49.696;8.662;2023-07-09T12:03:07;2.58;;;2.40;;
11893;SDS011;6006;49.696;8.662;2023-07-09T12:05:39;3.05;;;2.80;;
11893;SDS011;6006;49.696;8.662;2023-07-09T12:08:14;2.95;;;2.33;;
11893;SDS011;6006;49.696;8.662;2023-07-09T12:10:42;3.42;;;2.80;;
11893;SDS011;6006;49.696;8.662;2023-07-09T12:13:11;3.45;;;3.15;;
11893;SDS011;6006;49.696;8.662;2023-07-09T12:15:41;3.75;;;2.60;;
11893;SDS011;6006;49.696;8.662;2023-07-09T12:18:10;5.95;;;3.13;;
11893;SDS011;6006;49.696;8.662;2023-07-09T12:20:38;3.05;;;2.70;;
11893;SDS011;6006;49.696;8.662;2023-07-09T12:23:10;4.45;;;2.75;;
11893;SDS011;6006;49.696;8.662;2023-07-09T12:25:46;4.15;;;2.80;;
11893;SDS011;6006;49.696;8.662;2023-07-09T12:28:14;4.00;;;2.88;;
11893;SDS011;6006;49.696;8.662;2023-07-09T12:30:44;4.00;;;2.42;;
11893;SDS011;6006;49.696;8.662;2023-07-09T12:33:12;3.75;;;2.83;;
11893;SDS011;6006;49.696;8.662;2023-07-09T12:35:43;2.70;;;2.45;;
11893;SDS011;6006;49.696;8.662;2023-07-09T12:38:16;2.42;;;2.33;;
11893;SDS011;6006;49.696;8.662;2023-07-09T12:40:45;2.97;;;2.50;;
11893;SDS011;6006;49.696;8.662;2023-07-09T12:43:13;3.08;;;2.78;;
11893;SDS011;6006;49.696;8.662;2023-07-09T12:45:44;3.28;;;2.75;;
11893;SDS011;6006;49.696;8.662;2023-07-09T12:48:11;3.40;;;2.42;;
11893;SDS011;6006;49.696;8.662;2023-07-09T12:50:39;3.38;;;2.65;;
11893;SDS011;6006;49.696;8.662;2023-07-09T12:53:11;4.10;;;2.72;;
11893;SDS011;6006;49.696;8.662;2023-07-09T12:55:41;5.50;;;2.47;;
11893;SDS011;6006;49.696;8.662;2023-07-09T12:58:14;3.20;;;2.53;;
11893;SDS011;6006;49.696;8.662;2023-07-09T13:00:46;4.18;;;2.70;;
11893;SDS011;6006;49.696;8.662;2023-07-09T13:03:17;3.33;;;2.60;;
11893;SDS011;6006;49.696;8.662;2023-07-09T13:05:52;3.53;;;2.50;;
11893;SDS011;6006;49.696;8.662;2023-07-09T13:08:25;3.88;;;2.67;;
11893;SDS011;6006;49.696;8.662;2023-07-09T13:10:53;2.45;;;2.35;;
11893;SDS011;6006;49.696;8.662;2023-07-09T13:13:23;2.40;;;2.20;;
11893;SDS011;6006;49.696;8.662;2023-07-09T13:15:51;3.10;;;2.60;;
11893;SDS011;6006;49.696;8.662;2023-07-09T13:18:22;2.45;;;2.15;;
11893;SDS011;6006;49.696;8.662;2023-07-09T13:20:49;2.72;;;2.33;;
11893;SDS011;6006;49.696;8.662;2023-07-09T13:23:18;3.08;;;2.47;;
11893;SDS011;6006;49.696;8.662;2023-07-09T13:25:46;2.55;;;2.33;;
11893;SDS011;6006;49.696;8.662;2023-07-09T13:28:17;2.47;;;2.22;;
11893;SDS011;6006;49.696;8.662;2023-07-09T13:30:47;2.60;;;2.40;;
11893;SDS011;6006;49.696;8.662;2023-07-09T13:33:14;2.78;;;2.58;;
11893;SDS011;6006;49.696;8.662;2023-07-09T13:35:42;3.55;;;2.60;;
11893;SDS011;6006;49.696;8.662;2023-07-09T13:38:13;3.40;;;2.00;;
11893;SDS011;6006;49.696;8.662;2023-07-09T13:40:44;2.78;;;2.35;;
11893;SDS011;6006;49.696;8.662;2023-07-09T13:43:13;2.47;;;2.22;;
11893;SDS011;6006;49.696;8.662;2023-07-09T13:45:42;4.90;;;2.50;;
11893;SDS011;6006;49.696;8.662;2023-07-09T13:48:15;2.95;;;2.15;;
11893;SDS011;6006;49.696;8.662;2023-07-09T13:50:43;2.33;;;2.10;;
11893;SDS011;6006;49.696;8.662;2023-07-09T13:53:13;2.55;;;2.35;;
11893;SDS011;6006;49.696;8.662;2023-07-09T13:55:42;2.83;;;2.55;;
11893;SDS011;6006;49.696;8.662;2023-07-09T13:58:09;3.20;;;2.53;;
11893;SDS011;6006;49.696;8.662;2023-07-09T14:00:38;2.30;;;2.10;;
11893;SDS011;6006;49.696;8.662;2023-07-09T14:03:08;3.80;;;2.30;;
11893;SDS011;6006;49.696;8.662;2023-07-09T14:05:44;4.70;;;2.35;;
11893;SDS011;6006;49.696;8.662;2023-07-09T14:08:12;3.17;;;2.67;;
11893;SDS011;6006;49.696;8.662;2023-07-09T14:10:39;2.58;;;2.38;;
11893;SDS011;6006;49.696;8.662;2023-07-09T14:13:08;5.30;;;2.60;;
11893;SDS011;6006;49.696;8.662;2023-07-09T14:15:40;3.80;;;2.70;;
11893;SDS011;6006;49.696;8.662;2023-07-09T14:18:09;3.42;;;2.88;;
11893;SDS011;6006;49.696;8.662;2023-07-09T14:20:39;3.10;;;2.80;;
11893;SDS011;6006;49.696;8.662;2023-07-09T14:23:08;2.80;;;2.60;;
11893;SDS011;6006;49.696;8.662;2023-07-09T14:25:37;4.68;;;2.53;;
11893;SDS011;6006;49.696;8.662;2023-07-09T14:28:04;2.95;;;2.65;;
11893;SDS011;6006;49.696;8.662;2023-07-09T14:30:35;2.53;;;2.33;;
11893;SDS011;6006;49.696;8.662;2023-07-09T14:33:02;2.75;;;2.55;;
11893;SDS011;6006;49.696;8.662;2023-07-09T14:35:29;4.95;;;2.55;;
11893;SDS011;6006;49.696;8.662;2023-07-09T14:37:57;2.88;;;2.60;;
11893;SDS011;6006;49.696;8.662;2023-07-09T14:40:25;3.80;;;2.47;;
11893;SDS011;6006;49.696;8.662;2023-07-09T14:42:52;4.70;;;2.80;;
11893;SDS011;6006;49.696;8.662;2023-07-09T14:45:20;3.92;;;2.40;;
11893;SDS011;6006;49.696;8.662;2023-07-09T14:47:49;4.95;;;2.65;;
11893;SDS011;6006;49.696;8.662;2023-07-09T14:50:16;2.97;;;2.78;;
11893;SDS011;6006;49.696;8.662;2023-07-09T14:52:45;5.45;;;2.90;;
11893;SDS011;6006;49.696;8.662;2023-07-09T14:55:14;5.00;;;3.00;;
11893;SDS011;6006;49.696;8.662;2023-07-09T14:57:43;4.80;;;2.83;;
11893;SDS011;6006;49.696;8.662;2023-07-09T15:00:14;4.43;;;2.42;;
11893;SDS011;6006;49.696;8.662;2023-07-09T15:02:43;3.78;;;2.88;;
11893;SDS011;6006;49.696;8.662;2023-07-09T15:05:14;3.20;;;2.42;;
11893;SDS011;6006;49.696;8.662;2023-07-09T15:07:43;3.78;;;2.40;;
11893;SDS011;6006;49.696;8.662;2023-07-09T15:10:15;3.88;;;2.50;;
11893;SDS011;6006;49.696;8.662;2023-07-09T15:12:44;2.40;;;2.20;;